sensor_id;sensor_type;location;lat;lon;timestamp;temperature;humidity
34460;DHT22;20704;51.260;22.558;2023-07-28T00:01:13;14.90;1.00
34460;DHT22;20704;51.260;22.558;2023-07-28T00:03:15;14.80;1.00
34460;DHT22;20704;51.260;22.558;2023-07-28T00:05:17;14.80;1.00
34460;DHT22;20704;51.260;22.558;2023-07-28T00:07:19;14.80;1.00
34460;DHT22;20704;51.260;22.558;2023-07-28T00:09:22;14.80;1.00
34460;DHT22;20704;51.260;22.558;2023-07-28T00:11:27;14.90;1.00
34460;DHT22;20704;51.260;22.558;2023-07-28T00:13:29;15.00;23.10
34460;DHT22;20704;51.260;22.558;2023-07-28T00:15:32;15.00;1.00
34460;DHT22;20704;51.260;22.558;2023-07-28T00:17:34;15.10;1.00
34460;DHT22;20704;51.260;22.558;2023-07-28T00:19:36;15.10;1.00
34460;DHT22;20704;51.260;22.558;2023-07-28T00:21:39;15.10;7.40
34460;DHT22;20704;51.260;22.558;2023-07-28T00:23:41;15.10;1.00
34460;DHT22;20704;51.260;22.558;2023-07-28T00:25:43;15.00;1.00
34460;DHT22;20704;51.260;22.558;2023-07-28T00:27:45;15.00;1.00
34460;DHT22;20704;51.260;22.558;2023-07-28T00:29:49;14.90;1.00
34460;DHT22;20704;51.260;22.558;2023-07-28T00:31:51;14.90;1.00
34460;DHT22;20704;51.260;22.558;2023-07-28T00:33:55;14.80;1.00
34460;DHT22;20704;51.260;22.558;2023-07-28T00:35:57;14.80;1.00
34460;DHT22;20704;51.260;22.558;2023-07-28T00:38:00;14.80;1.00
34460;DHT22;20704;51.260;22.558;2023-07-28T00:40:02;14.80;1.00
34460;DHT22;20704;51.260;22.558;2023-07-28T00:42:05;14.70;1.00
34460;DHT22;20704;51.260;22.558;2023-07-28T00:44:08;14.80;37.60
34460;DHT22;20704;51.260;22.558;2023-07-28T00:46:10;14.70;99.90
34460;DHT22;20704;51.260;22.558;2023-07-28T00:48:13;14.60;99.90
34460;DHT22;20704;51.260;22.558;2023-07-28T00:50:16;14.70;99.90
34460;DHT22;20704;51.260;22.558;2023-07-28T00:52:18;14.60;99.90
34460;DHT22;20704;51.260;22.558;2023-07-28T00:54:21;14.60;99.90
34460;DHT22;20704;51.260;22.558;2023-07-28T00:56:23;14.60;99.90
34460;DHT22;20704;51.260;22.558;2023-07-28T00:58:26;14.60;99.90
34460;DHT22;20704;51.260;22.558;2023-07-28T01:00:29;14.50;99.90
34460;DHT22;20704;51.260;22.558;2023-07-28T01:02:31;14.50;99.90
34460;DHT22;20704;51.260;22.558;2023-07-28T01:04:33;14.50;99.90
34460;DHT22;20704;51.260;22.558;2023-07-28T01:08:59;14.40;99.90
34460;DHT22;20704;51.260;22.558;2023-07-28T01:11:03;14.50;99.90
34460;DHT22;20704;51.260;22.558;2023-07-28T01:13:05;14.50;99.90
34460;DHT22;20704;51.260;22.558;2023-07-28T01:15:08;14.50;99.90
34460;DHT22;20704;51.260;22.558;2023-07-28T01:17:13;14.50;99.90
34460;DHT22;20704;51.260;22.558;2023-07-28T01:19:17;14.40;99.90
34460;DHT22;20704;51.260;22.558;2023-07-28T01:21:25;14.40;99.90
34460;DHT22;20704;51.260;22.558;2023-07-28T01:25:49;14.40;99.90
34460;DHT22;20704;51.260;22.558;2023-07-28T01:27:58;14.40;99.90
34460;DHT22;20704;51.260;22.558;2023-07-28T01:30:01;14.50;99.90
34460;DHT22;20704;51.260;22.558;2023-07-28T01:32:04;14.50;99.90
34460;DHT22;20704;51.260;22.558;2023-07-28T01:34:06;14.50;99.90
34460;DHT22;20704;51.260;22.558;2023-07-28T01:36:09;14.50;99.90
34460;DHT22;20704;51.260;22.558;2023-07-28T01:38:11;14.50;99.90
34460;DHT22;20704;51.260;22.558;2023-07-28T01:40:15;14.40;99.90
34460;DHT22;20704;51.260;22.558;2023-07-28T01:42:17;14.30;1.00
34460;DHT22;20704;51.260;22.558;2023-07-28T01:44:19;14.20;72.00
34460;DHT22;20704;51.260;22.558;2023-07-28T01:46:22;14.20;99.90
34460;DHT22;20704;51.260;22.558;2023-07-28T01:48:26;14.30;99.90
34460;DHT22;20704;51.260;22.558;2023-07-28T01:50:28;14.40;88.60
34460;DHT22;20704;51.260;22.558;2023-07-28T01:52:31;14.50;36.10
34460;DHT22;20704;51.260;22.558;2023-07-28T01:54:33;14.40;6.80
34460;DHT22;20704;51.260;22.558;2023-07-28T01:56:35;14.50;1.00
34460;DHT22;20704;51.260;22.558;2023-07-28T01:58:38;14.40;1.00
34460;DHT22;20704;51.260;22.558;2023-07-28T02:00:40;14.50;1.00
34460;DHT22;20704;51.260;22.558;2023-07-28T02:02:43;14.50;1.00
34460;DHT22;20704;51.260;22.558;2023-07-28T02:04:45;14.60;1.00
34460;DHT22;20704;51.260;22.558;2023-07-28T02:06:48;14.60;99.90
34460;DHT22;20704;51.260;22.558;2023-07-28T02:08:50;14.60;99.90
34460;DHT22;20704;51.260;22.558;2023-07-28T02:10:53;14.60;99.90
34460;DHT22;20704;51.260;22.558;2023-07-28T02:12:56;14.60;99.90
34460;DHT22;20704;51.260;22.558;2023-07-28T02:14:58;14.60;99.90
34460;DHT22;20704;51.260;22.558;2023-07-28T02:17:00;14.60;99.90
34460;DHT22;20704;51.260;22.558;2023-07-28T02:19:03;14.60;99.90
34460;DHT22;20704;51.260;22.558;2023-07-28T02:21:08;14.60;99.90
34460;DHT22;20704;51.260;22.558;2023-07-28T02:23:10;14.70;99.90
34460;DHT22;20704;51.260;22.558;2023-07-28T02:25:14;14.70;99.90
34460;DHT22;20704;51.260;22.558;2023-07-28T02:27:17;14.70;99.90
34460;DHT22;20704;51.260;22.558;2023-07-28T02:29:19;14.70;99.90
34460;DHT22;20704;51.260;22.558;2023-07-28T02:31:22;14.80;88.60
34460;DHT22;20704;51.260;22.558;2023-07-28T02:33:24;14.80;1.00
34460;DHT22;20704;51.260;22.558;2023-07-28T02:35:26;14.90;1.00
34460;DHT22;20704;51.260;22.558;2023-07-28T02:37:29;14.80;1.00
34460;DHT22;20704;51.260;22.558;2023-07-28T02:39:31;14.80;1.00
34460;DHT22;20704;51.260;22.558;2023-07-28T02:41:34;14.80;1.00
34460;DHT22;20704;51.260;22.558;2023-07-28T02:43:36;14.80;1.00
34460;DHT22;20704;51.260;22.558;2023-07-28T02:45:38;14.80;1.00
34460;DHT22;20704;51.260;22.558;2023-07-28T02:47:40;14.80;99.90
34460;DHT22;20704;51.260;22.558;2023-07-28T02:49:43;14.80;99.90
34460;DHT22;20704;51.260;22.558;2023-07-28T02:51:45;14.80;99.90
34460;DHT22;20704;51.260;22.558;2023-07-28T02:53:47;14.70;99.90
34460;DHT22;20704;51.260;22.558;2023-07-28T02:55:50;14.70;99.90
34460;DHT22;20704;51.260;22.558;2023-07-28T02:57:52;14.70;99.90
34460;DHT22;20704;51.260;22.558;2023-07-28T02:59:54;14.80;99.90
34460;DHT22;20704;51.260;22.558;2023-07-28T03:01:57;14.90;99.90
34460;DHT22;20704;51.260;22.558;2023-07-28T03:04:03;14.90;99.90
34460;DHT22;20704;51.260;22.558;2023-07-28T03:06:05;14.90;99.90
34460;DHT22;20704;51.260;22.558;2023-07-28T03:08:07;14.90;99.90
34460;DHT22;20704;51.260;22.558;2023-07-28T03:10:10;14.90;99.90
34460;DHT22;20704;51.260;22.558;2023-07-28T03:12:18;14.90;99.90
34460;DHT22;20704;51.260;22.558;2023-07-28T03:14:20;14.80;99.90
34460;DHT22;20704;51.260;22.558;2023-07-28T03:16:22;14.90;99.90
34460;DHT22;20704;51.260;22.558;2023-07-28T03:18:25;14.80;99.90
34460;DHT22;20704;51.260;22.558;2023-07-28T03:20:27;14.80;99.90
34460;DHT22;20704;51.260;22.558;2023-07-28T03:22:30;14.80;99.90
34460;DHT22;20704;51.260;22.558;2023-07-28T03:24:32;14.80;99.90
34460;DHT22;20704;51.260;22.558;2023-07-28T03:26:34;14.90;99.90
34460;DHT22;20704;51.260;22.558;2023-07-28T03:28:37;14.90;99.90
34460;DHT22;20704;51.260;22.558;2023-07-28T03:30:40;14.90;99.90
34460;DHT22;20704;51.260;22.558;2023-07-28T03:32:42;14.90;99.90
34460;DHT22;20704;51.260;22.558;2023-07-28T03:34:45;15.00;99.90
34460;DHT22;20704;51.260;22.558;2023-07-28T03:36:47;15.00;99.90
34460;DHT22;20704;51.260;22.558;2023-07-28T03:38:49;14.90;99.90
34460;DHT22;20704;51.260;22.558;2023-07-28T03:40:52;14.90;99.90
34460;DHT22;20704;51.260;22.558;2023-07-28T03:42:54;14.90;99.90
34460;DHT22;20704;51.260;22.558;2023-07-28T03:44:56;14.80;99.90
34460;DHT22;20704;51.260;22.558;2023-07-28T03:46:59;14.80;99.90
34460;DHT22;20704;51.260;22.558;2023-07-28T03:49:01;14.80;99.90
34460;DHT22;20704;51.260;22.558;2023-07-28T03:51:04;14.80;99.90
34460;DHT22;20704;51.260;22.558;2023-07-28T03:53:06;14.80;99.90
34460;DHT22;20704;51.260;22.558;2023-07-28T03:55:09;14.80;99.90
34460;DHT22;20704;51.260;22.558;2023-07-28T03:57:11;14.70;99.90
34460;DHT22;20704;51.260;22.558;2023-07-28T03:59:13;14.80;1.00
34460;DHT22;20704;51.260;22.558;2023-07-28T04:01:16;14.80;1.00
34460;DHT22;20704;51.260;22.558;2023-07-28T04:03:19;14.70;1.00
34460;DHT22;20704;51.260;22.558;2023-07-28T04:05:22;14.80;1.00
34460;DHT22;20704;51.260;22.558;2023-07-28T04:07:24;14.80;1.00
34460;DHT22;20704;51.260;22.558;2023-07-28T04:09:27;14.80;1.00
34460;DHT22;20704;51.260;22.558;2023-07-28T04:11:30;14.80;1.00
34460;DHT22;20704;51.260;22.558;2023-07-28T04:13:33;14.80;1.00
34460;DHT22;20704;51.260;22.558;2023-07-28T04:15:36;14.80;1.00
34460;DHT22;20704;51.260;22.558;2023-07-28T04:17:38;14.90;1.00
34460;DHT22;20704;51.260;22.558;2023-07-28T04:19:41;14.90;1.00
34460;DHT22;20704;51.260;22.558;2023-07-28T04:21:43;14.90;1.00
34460;DHT22;20704;51.260;22.558;2023-07-28T04:23:45;15.00;1.00
34460;DHT22;20704;51.260;22.558;2023-07-28T04:25:48;15.00;1.00
34460;DHT22;20704;51.260;22.558;2023-07-28T04:27:50;15.00;99.90
34460;DHT22;20704;51.260;22.558;2023-07-28T04:29:52;15.10;99.90
34460;DHT22;20704;51.260;22.558;2023-07-28T04:31:55;15.10;99.90
34460;DHT22;20704;51.260;22.558;2023-07-28T04:33:57;15.20;99.90
34460;DHT22;20704;51.260;22.558;2023-07-28T04:36:02;15.20;99.90
34460;DHT22;20704;51.260;22.558;2023-07-28T04:38:04;15.30;99.90
34460;DHT22;20704;51.260;22.558;2023-07-28T04:40:08;15.30;99.90
34460;DHT22;20704;51.260;22.558;2023-07-28T04:42:10;15.30;99.90
34460;DHT22;20704;51.260;22.558;2023-07-28T04:44:13;15.30;99.90
34460;DHT22;20704;51.260;22.558;2023-07-28T04:46:15;15.30;99.90
34460;DHT22;20704;51.260;22.558;2023-07-28T04:48:18;15.40;99.90
34460;DHT22;20704;51.260;22.558;2023-07-28T04:50:20;15.40;99.90
34460;DHT22;20704;51.260;22.558;2023-07-28T04:52:22;15.60;99.90
34460;DHT22;20704;51.260;22.558;2023-07-28T04:54:24;15.60;99.90
34460;DHT22;20704;51.260;22.558;2023-07-28T04:56:27;15.60;99.90
34460;DHT22;20704;51.260;22.558;2023-07-28T04:58:29;15.60;99.90
34460;DHT22;20704;51.260;22.558;2023-07-28T05:00:32;15.70;99.90
34460;DHT22;20704;51.260;22.558;2023-07-28T05:02:34;15.70;99.90
34460;DHT22;20704;51.260;22.558;2023-07-28T05:04:37;15.80;99.90
34460;DHT22;20704;51.260;22.558;2023-07-28T05:06:39;15.80;99.90
34460;DHT22;20704;51.260;22.558;2023-07-28T05:08:41;15.80;99.90
34460;DHT22;20704;51.260;22.558;2023-07-28T05:10:44;15.90;99.90
34460;DHT22;20704;51.260;22.558;2023-07-28T05:12:46;16.00;99.90
34460;DHT22;20704;51.260;22.558;2023-07-28T05:14:48;16.00;99.90
34460;DHT22;20704;51.260;22.558;2023-07-28T05:16:51;16.00;99.90
34460;DHT22;20704;51.260;22.558;2023-07-28T05:18:53;16.00;94.40
34460;DHT22;20704;51.260;22.558;2023-07-28T05:20:55;16.10;64.40
34460;DHT22;20704;51.260;22.558;2023-07-28T05:22:58;16.10;87.00
34460;DHT22;20704;51.260;22.558;2023-07-28T05:25:00;16.10;71.80
34460;DHT22;20704;51.260;22.558;2023-07-28T05:27:03;16.20;70.50
34460;DHT22;20704;51.260;22.558;2023-07-28T05:29:06;16.20;56.60
34460;DHT22;20704;51.260;22.558;2023-07-28T05:31:08;16.20;41.00
34460;DHT22;20704;51.260;22.558;2023-07-28T05:33:10;16.30;41.40
34460;DHT22;20704;51.260;22.558;2023-07-28T05:35:14;16.30;39.20
34460;DHT22;20704;51.260;22.558;2023-07-28T05:37:16;16.50;1.00
34460;DHT22;20704;51.260;22.558;2023-07-28T05:39:19;16.60;1.00
34460;DHT22;20704;51.260;22.558;2023-07-28T05:41:23;16.90;1.00
34460;DHT22;20704;51.260;22.558;2023-07-28T05:43:29;17.00;1.00
34460;DHT22;20704;51.260;22.558;2023-07-28T05:45:32;17.10;1.00
34460;DHT22;20704;51.260;22.558;2023-07-28T05:47:34;17.20;1.00
34460;DHT22;20704;51.260;22.558;2023-07-28T05:49:37;17.20;99.90
34460;DHT22;20704;51.260;22.558;2023-07-28T05:51:39;17.30;99.90
34460;DHT22;20704;51.260;22.558;2023-07-28T05:53:42;17.40;99.90
34460;DHT22;20704;51.260;22.558;2023-07-28T05:55:44;17.40;99.90
34460;DHT22;20704;51.260;22.558;2023-07-28T05:57:47;17.30;99.90
34460;DHT22;20704;51.260;22.558;2023-07-28T05:59:49;17.40;99.90
34460;DHT22;20704;51.260;22.558;2023-07-28T06:01:52;17.30;99.90
34460;DHT22;20704;51.260;22.558;2023-07-28T06:03:54;17.40;99.90
34460;DHT22;20704;51.260;22.558;2023-07-28T06:06:01;17.30;99.90
34460;DHT22;20704;51.260;22.558;2023-07-28T06:08:04;17.40;99.90
34460;DHT22;20704;51.260;22.558;2023-07-28T06:10:07;17.30;99.90
34460;DHT22;20704;51.260;22.558;2023-07-28T06:12:09;17.40;1.00
34460;DHT22;20704;51.260;22.558;2023-07-28T06:14:12;17.40;1.00
34460;DHT22;20704;51.260;22.558;2023-07-28T06:16:14;17.40;1.00
34460;DHT22;20704;51.260;22.558;2023-07-28T06:18:17;17.40;1.00
34460;DHT22;20704;51.260;22.558;2023-07-28T06:20:19;17.40;1.00
34460;DHT22;20704;51.260;22.558;2023-07-28T06:22:22;17.40;1.00
34460;DHT22;20704;51.260;22.558;2023-07-28T06:24:24;17.40;1.00
34460;DHT22;20704;51.260;22.558;2023-07-28T06:26:26;17.30;1.00
34460;DHT22;20704;51.260;22.558;2023-07-28T06:28:29;17.40;1.00
34460;DHT22;20704;51.260;22.558;2023-07-28T06:30:31;17.50;1.00
34460;DHT22;20704;51.260;22.558;2023-07-28T06:32:34;17.50;1.00
34460;DHT22;20704;51.260;22.558;2023-07-28T06:34:36;17.50;1.00
34460;DHT22;20704;51.260;22.558;2023-07-28T06:36:38;17.60;1.00
34460;DHT22;20704;51.260;22.558;2023-07-28T06:38:42;17.70;1.00
34460;DHT22;20704;51.260;22.558;2023-07-28T06:40:46;17.70;1.00
34460;DHT22;20704;51.260;22.558;2023-07-28T06:42:48;17.80;1.00
34460;DHT22;20704;51.260;22.558;2023-07-28T06:44:51;17.80;1.00
34460;DHT22;20704;51.260;22.558;2023-07-28T06:46:53;17.80;1.00
34460;DHT22;20704;51.260;22.558;2023-07-28T06:48:55;17.80;1.00
34460;DHT22;20704;51.260;22.558;2023-07-28T06:50:58;18.00;1.00
34460;DHT22;20704;51.260;22.558;2023-07-28T06:53:00;18.00;1.00
34460;DHT22;20704;51.260;22.558;2023-07-28T06:55:03;18.10;1.00
34460;DHT22;20704;51.260;22.558;2023-07-28T06:57:06;18.20;1.00
34460;DHT22;20704;51.260;22.558;2023-07-28T06:59:08;18.10;1.00
34460;DHT22;20704;51.260;22.558;2023-07-28T07:01:20;18.00;25.80
34460;DHT22;20704;51.260;22.558;2023-07-28T07:03:24;17.50;99.90
34460;DHT22;20704;51.260;22.558;2023-07-28T07:05:26;17.70;99.90
34460;DHT22;20704;51.260;22.558;2023-07-28T07:07:29;17.60;99.00
34460;DHT22;20704;51.260;22.558;2023-07-28T07:11:35;17.40;99.90
34460;DHT22;20704;51.260;22.558;2023-07-28T07:13:38;17.40;1.00
34460;DHT22;20704;51.260;22.558;2023-07-28T07:15:41;17.40;99.90
34460;DHT22;20704;51.260;22.558;2023-07-28T07:19:47;17.30;99.90
34460;DHT22;20704;51.260;22.558;2023-07-28T07:25:55;17.60;99.90
34460;DHT22;20704;51.260;22.558;2023-07-28T07:32:05;18.40;99.90
34460;DHT22;20704;51.260;22.558;2023-07-28T07:34:07;17.40;99.90
34460;DHT22;20704;51.260;22.558;2023-07-28T07:36:14;17.50;99.90
34460;DHT22;20704;51.260;22.558;2023-07-28T07:38:16;17.40;99.90
34460;DHT22;20704;51.260;22.558;2023-07-28T07:42:22;17.60;99.90
34460;DHT22;20704;51.260;22.558;2023-07-28T07:44:24;17.60;99.90
34460;DHT22;20704;51.260;22.558;2023-07-28T07:46:26;17.80;99.90
34460;DHT22;20704;51.260;22.558;2023-07-28T07:48:29;17.70;1.00
34460;DHT22;20704;51.260;22.558;2023-07-28T07:50:32;17.90;99.90
34460;DHT22;20704;51.260;22.558;2023-07-28T07:52:35;17.80;99.90
34460;DHT22;20704;51.260;22.558;2023-07-28T07:54:41;17.80;1.00
34460;DHT22;20704;51.260;22.558;2023-07-28T07:56:45;17.80;1.00
34460;DHT22;20704;51.260;22.558;2023-07-28T07:58:48;17.80;1.00
34460;DHT22;20704;51.260;22.558;2023-07-28T08:00:51;18.00;1.00
34460;DHT22;20704;51.260;22.558;2023-07-28T08:04:56;18.00;99.90
34460;DHT22;20704;51.260;22.558;2023-07-28T08:09:02;18.10;99.90
34460;DHT22;20704;51.260;22.558;2023-07-28T08:15:10;17.80;99.90
34460;DHT22;20704;51.260;22.558;2023-07-28T08:23:21;17.80;99.90
34460;DHT22;20704;51.260;22.558;2023-07-28T08:25:23;17.70;99.90
34460;DHT22;20704;51.260;22.558;2023-07-28T08:27:26;17.70;99.90
34460;DHT22;20704;51.260;22.558;2023-07-28T08:29:28;17.60;99.90
34460;DHT22;20704;51.260;22.558;2023-07-28T08:31:31;17.60;99.90
34460;DHT22;20704;51.260;22.558;2023-07-28T08:33:33;17.60;99.90
34460;DHT22;20704;51.260;22.558;2023-07-28T08:35:35;17.70;99.90
34460;DHT22;20704;51.260;22.558;2023-07-28T08:39:41;17.60;99.90
34460;DHT22;20704;51.260;22.558;2023-07-28T08:41:43;17.60;99.90
34460;DHT22;20704;51.260;22.558;2023-07-28T08:45:48;17.70;99.90
34460;DHT22;20704;51.260;22.558;2023-07-28T08:51:59;17.80;99.90
34460;DHT22;20704;51.260;22.558;2023-07-28T08:56:05;17.80;99.90
34460;DHT22;20704;51.260;22.558;2023-07-28T08:58:21;17.90;99.90
34460;DHT22;20704;51.260;22.558;2023-07-28T09:04:30;18.10;99.90
34460;DHT22;20704;51.260;22.558;2023-07-28T09:06:33;18.10;99.90
34460;DHT22;20704;51.260;22.558;2023-07-28T09:08:36;18.20;99.90
34460;DHT22;20704;51.260;22.558;2023-07-28T09:10:46;18.30;99.90
34460;DHT22;20704;51.260;22.558;2023-07-28T09:12:51;18.30;99.90
34460;DHT22;20704;51.260;22.558;2023-07-28T09:17:09;18.10;1.00
34460;DHT22;20704;51.260;22.558;2023-07-28T09:21:19;18.40;99.90
34460;DHT22;20704;51.260;22.558;2023-07-28T09:23:30;18.30;99.90
34460;DHT22;20704;51.260;22.558;2023-07-28T09:35:50;18.90;99.90
34460;DHT22;20704;51.260;22.558;2023-07-28T09:41:59;19.20;99.90
34460;DHT22;20704;51.260;22.558;2023-07-28T09:46:08;19.30;1.00
34460;DHT22;20704;51.260;22.558;2023-07-28T09:48:11;19.30;1.00
34460;DHT22;20704;51.260;22.558;2023-07-28T09:50:16;19.40;1.00
34460;DHT22;20704;51.260;22.558;2023-07-28T09:52:22;19.30;1.00
34460;DHT22;20704;51.260;22.558;2023-07-28T09:54:29;19.40;1.00
34460;DHT22;20704;51.260;22.558;2023-07-28T09:58:38;19.50;1.00
34460;DHT22;20704;51.260;22.558;2023-07-28T10:06:52;19.30;1.00
34460;DHT22;20704;51.260;22.558;2023-07-28T10:11:02;19.20;1.00
34460;DHT22;20704;51.260;22.558;2023-07-28T10:15:13;19.10;1.00
34460;DHT22;20704;51.260;22.558;2023-07-28T10:21:27;18.80;16.60
34460;DHT22;20704;51.260;22.558;2023-07-28T10:23:30;18.70;99.90
34460;DHT22;20704;51.260;22.558;2023-07-28T10:25:37;18.60;99.90
34460;DHT22;20704;51.260;22.558;2023-07-28T10:27:46;18.60;99.90
34460;DHT22;20704;51.260;22.558;2023-07-28T10:29:59;18.40;1.00
34460;DHT22;20704;51.260;22.558;2023-07-28T10:32:01;18.50;99.90
34460;DHT22;20704;51.260;22.558;2023-07-28T10:34:05;18.40;99.90
34460;DHT22;20704;51.260;22.558;2023-07-28T10:36:18;18.40;1.00
34460;DHT22;20704;51.260;22.558;2023-07-28T10:38:35;18.50;1.00
34460;DHT22;20704;51.260;22.558;2023-07-28T10:42:41;18.60;30.50
34460;DHT22;20704;51.260;22.558;2023-07-28T10:44:43;18.60;99.90
34460;DHT22;20704;51.260;22.558;2023-07-28T10:48:50;18.80;99.90
34460;DHT22;20704;51.260;22.558;2023-07-28T11:05:25;19.90;99.90
34460;DHT22;20704;51.260;22.558;2023-07-28T11:13:39;20.10;97.80
34460;DHT22;20704;51.260;22.558;2023-07-28T11:17:50;20.10;99.90
34460;DHT22;20704;51.260;22.558;2023-07-28T11:26:05;19.90;1.00
34460;DHT22;20704;51.260;22.558;2023-07-28T11:30:14;19.80;1.00
34460;DHT22;20704;51.260;22.558;2023-07-28T11:32:17;19.80;1.00
34460;DHT22;20704;51.260;22.558;2023-07-28T11:36:27;19.70;1.00
34460;DHT22;20704;51.260;22.558;2023-07-28T11:40:35;19.70;1.00
34460;DHT22;20704;51.260;22.558;2023-07-28T11:42:40;19.70;1.00
34460;DHT22;20704;51.260;22.558;2023-07-28T11:52:57;19.80;99.90
34460;DHT22;20704;51.260;22.558;2023-07-28T11:55:00;19.70;99.90
34460;DHT22;20704;51.260;22.558;2023-07-28T11:57:02;19.80;99.90
34460;DHT22;20704;51.260;22.558;2023-07-28T11:59:05;19.90;99.90
34460;DHT22;20704;51.260;22.558;2023-07-28T12:01:08;19.90;99.90
34460;DHT22;20704;51.260;22.558;2023-07-28T12:03:11;20.00;99.90
34460;DHT22;20704;51.260;22.558;2023-07-28T12:05:17;19.80;99.90
34460;DHT22;20704;51.260;22.558;2023-07-28T12:07:31;19.80;99.90
34460;DHT22;20704;51.260;22.558;2023-07-28T12:09:47;19.90;99.90
34460;DHT22;20704;51.260;22.558;2023-07-28T12:12:05;19.70;99.90
34460;DHT22;20704;51.260;22.558;2023-07-28T12:14:07;19.60;99.90
34460;DHT22;20704;51.260;22.558;2023-07-28T12:16:49;19.50;99.90
34460;DHT22;20704;51.260;22.558;2023-07-28T12:18:58;19.40;1.00
34460;DHT22;20704;51.260;22.558;2023-07-28T12:23:06;19.40;99.90
34460;DHT22;20704;51.260;22.558;2023-07-28T12:25:11;19.30;99.90
34460;DHT22;20704;51.260;22.558;2023-07-28T12:42:07;18.90;99.90
34460;DHT22;20704;51.260;22.558;2023-07-28T12:44:12;18.90;1.00
34460;DHT22;20704;51.260;22.558;2023-07-28T12:46:18;18.80;1.00
34460;DHT22;20704;51.260;22.558;2023-07-28T12:48:20;18.80;1.00
34460;DHT22;20704;51.260;22.558;2023-07-28T12:50:23;18.80;1.00
34460;DHT22;20704;51.260;22.558;2023-07-28T12:54:49;19.10;1.00
34460;DHT22;20704;51.260;22.558;2023-07-28T12:56:52;19.10;99.90
34460;DHT22;20704;51.260;22.558;2023-07-28T12:59:12;19.20;99.90
34460;DHT22;20704;51.260;22.558;2023-07-28T13:01:17;19.00;1.00
34460;DHT22;20704;51.260;22.558;2023-07-28T13:03:20;18.90;99.90
34460;DHT22;20704;51.260;22.558;2023-07-28T13:05:22;18.90;99.90
34460;DHT22;20704;51.260;22.558;2023-07-28T13:07:25;18.80;1.00
34460;DHT22;20704;51.260;22.558;2023-07-28T13:09:30;18.60;99.90
34460;DHT22;20704;51.260;22.558;2023-07-28T13:11:35;18.40;99.90
34460;DHT22;20704;51.260;22.558;2023-07-28T13:13:41;18.40;99.90
34460;DHT22;20704;51.260;22.558;2023-07-28T13:15:44;18.50;1.00
34460;DHT22;20704;51.260;22.558;2023-07-28T13:17:46;18.40;99.90
34460;DHT22;20704;51.260;22.558;2023-07-28T13:19:48;18.40;99.90
34460;DHT22;20704;51.260;22.558;2023-07-28T13:21:51;18.50;99.90
34460;DHT22;20704;51.260;22.558;2023-07-28T13:23:53;18.40;99.90
34460;DHT22;20704;51.260;22.558;2023-07-28T13:25:56;18.30;99.90
34460;DHT22;20704;51.260;22.558;2023-07-28T13:27:58;18.30;94.80
34460;DHT22;20704;51.260;22.558;2023-07-28T13:30:00;18.20;99.90
34460;DHT22;20704;51.260;22.558;2023-07-28T13:32:18;18.10;99.90
34460;DHT22;20704;51.260;22.558;2023-07-28T13:34:24;17.90;1.00
34460;DHT22;20704;51.260;22.558;2023-07-28T13:36:26;18.00;68.40
34460;DHT22;20704;51.260;22.558;2023-07-28T13:38:28;17.90;99.90
34460;DHT22;20704;51.260;22.558;2023-07-28T13:40:31;17.80;1.00
34460;DHT22;20704;51.260;22.558;2023-07-28T13:42:34;17.70;1.00
34460;DHT22;20704;51.260;22.558;2023-07-28T13:44:36;17.70;1.00
34460;DHT22;20704;51.260;22.558;2023-07-28T13:46:46;17.90;1.00
34460;DHT22;20704;51.260;22.558;2023-07-28T13:48:49;18.00;1.00
34460;DHT22;20704;51.260;22.558;2023-07-28T13:50:54;18.20;1.00
34460;DHT22;20704;51.260;22.558;2023-07-28T13:52:57;18.40;99.90
34460;DHT22;20704;51.260;22.558;2023-07-28T13:55:00;18.50;99.90
34460;DHT22;20704;51.260;22.558;2023-07-28T13:57:07;18.50;1.00
34460;DHT22;20704;51.260;22.558;2023-07-28T13:59:09;18.50;1.00
34460;DHT22;20704;51.260;22.558;2023-07-28T14:01:12;18.60;1.00
34460;DHT22;20704;51.260;22.558;2023-07-28T14:03:14;18.40;99.90
34460;DHT22;20704;51.260;22.558;2023-07-28T14:05:18;18.50;1.00
34460;DHT22;20704;51.260;22.558;2023-07-28T14:07:21;18.40;1.00
34460;DHT22;20704;51.260;22.558;2023-07-28T14:09:23;18.50;1.00
34460;DHT22;20704;51.260;22.558;2023-07-28T14:11:26;18.40;1.00
34460;DHT22;20704;51.260;22.558;2023-07-28T14:13:28;18.40;4.70
34460;DHT22;20704;51.260;22.558;2023-07-28T14:15:30;18.30;99.90
34460;DHT22;20704;51.260;22.558;2023-07-28T14:17:33;18.30;99.90
34460;DHT22;20704;51.260;22.558;2023-07-28T14:19:38;18.30;99.90
34460;DHT22;20704;51.260;22.558;2023-07-28T14:21:41;18.20;99.90
34460;DHT22;20704;51.260;22.558;2023-07-28T14:23:43;18.20;99.90
34460;DHT22;20704;51.260;22.558;2023-07-28T14:25:46;18.10;99.90
34460;DHT22;20704;51.260;22.558;2023-07-28T14:27:48;18.20;99.90
34460;DHT22;20704;51.260;22.558;2023-07-28T14:29:50;18.20;99.90
34460;DHT22;20704;51.260;22.558;2023-07-28T14:31:53;18.20;99.90
34460;DHT22;20704;51.260;22.558;2023-07-28T14:33:55;18.40;99.90
34460;DHT22;20704;51.260;22.558;2023-07-28T14:35:58;18.50;99.90
34460;DHT22;20704;51.260;22.558;2023-07-28T14:38:01;18.50;99.90
34460;DHT22;20704;51.260;22.558;2023-07-28T14:40:03;18.60;99.90
34460;DHT22;20704;51.260;22.558;2023-07-28T14:42:06;18.60;99.90
34460;DHT22;20704;51.260;22.558;2023-07-28T14:44:08;18.60;99.90
34460;DHT22;20704;51.260;22.558;2023-07-28T14:46:11;18.70;99.90
34460;DHT22;20704;51.260;22.558;2023-07-28T14:48:14;18.70;99.90
34460;DHT22;20704;51.260;22.558;2023-07-28T14:50:16;18.80;99.90
34460;DHT22;20704;51.260;22.558;2023-07-28T14:52:19;18.90;99.90
34460;DHT22;20704;51.260;22.558;2023-07-28T14:54:22;19.00;94.20
34460;DHT22;20704;51.260;22.558;2023-07-28T14:58:27;19.30;1.00
34460;DHT22;20704;51.260;22.558;2023-07-28T15:00:30;19.40;99.90
34460;DHT22;20704;51.260;22.558;2023-07-28T15:02:36;19.40;1.00
34460;DHT22;20704;51.260;22.558;2023-07-28T15:04:38;19.60;1.00
34460;DHT22;20704;51.260;22.558;2023-07-28T15:06:41;19.60;1.00
34460;DHT22;20704;51.260;22.558;2023-07-28T15:08:46;19.70;1.00
34460;DHT22;20704;51.260;22.558;2023-07-28T15:10:50;19.90;99.90
34460;DHT22;20704;51.260;22.558;2023-07-28T15:12:53;19.80;99.90
34460;DHT22;20704;51.260;22.558;2023-07-28T15:14:56;19.90;1.00
34460;DHT22;20704;51.260;22.558;2023-07-28T15:19:02;20.30;99.90
34460;DHT22;20704;51.260;22.558;2023-07-28T15:29:19;19.90;1.00
34460;DHT22;20704;51.260;22.558;2023-07-28T15:33:24;19.90;1.00
34460;DHT22;20704;51.260;22.558;2023-07-28T15:35:31;20.00;91.10
34460;DHT22;20704;51.260;22.558;2023-07-28T15:37:33;19.90;99.90
34460;DHT22;20704;51.260;22.558;2023-07-28T15:39:35;20.00;99.90